Terminal Aerodrome Forecast
Issued by NWS

Home | Current Version | Previous Version | Text Only | Print | Product List | Glossary On
Versions: 1 2 3 4 5 6 7 8 9 10 11 12 13 14 15 16 17 18 19 20
000
FTUS43 KAPX 251133
TAFAPN
TAF
KAPN 251133Z 2512/2612 17014KT 5SM -RA BR OVC008 WS020/25045KT
     FM251400 22017G32KT P6SM BKN015
     FM251500 24018G35KT P6SM SCT025
     FM260600 26012G23KT P6SM SCT035
     FM261100 26009KT P6SM SCT050=

USA.gov is the U.S. government's official web portal to all federal, state and local government web resources and services.